createdAt,value
2022-11-13T00:00:11.179Z,0
2022-11-13T00:01:08.145Z,0
2022-11-13T00:02:08.452Z,0
2022-11-13T00:03:08.180Z,0
2022-11-13T00:04:08.229Z,0
2022-11-13T00:05:10.895Z,0
2022-11-13T00:06:08.127Z,0
2022-11-13T00:07:08.515Z,0
2022-11-13T00:08:08.152Z,0
2022-11-13T00:09:08.119Z,0
2022-11-13T00:10:08.127Z,0
2022-11-13T00:11:11.217Z,0
2022-11-13T00:12:08.145Z,0
2022-11-13T00:13:08.150Z,0
2022-11-13T00:14:08.126Z,0
2022-11-13T00:15:08.252Z,0
2022-11-13T00:16:11.193Z,0
2022-11-13T00:17:08.134Z,0
2022-11-13T00:18:09.263Z,0
2022-11-13T00:19:08.141Z,0
2022-11-13T00:20:08.254Z,0
2022-11-13T00:21:08.131Z,0
2022-11-13T00:22:11.287Z,0
2022-11-13T00:23:08.287Z,0
2022-11-13T00:24:08.155Z,0
2022-11-13T00:25:08.161Z,0
2022-11-13T00:26:08.197Z,0
2022-11-13T00:27:09.215Z,0
2022-11-13T00:28:08.191Z,0
2022-11-13T00:29:08.168Z,0
2022-11-13T00:30:08.136Z,0
2022-11-13T00:31:08.275Z,0
2022-11-13T00:32:08.150Z,0
2022-11-13T00:33:11.193Z,0
2022-11-13T00:34:57.311Z,0
2022-11-13T00:35:08.159Z,0
2022-11-13T00:36:08.277Z,0
2022-11-13T00:37:08.152Z,0
2022-11-13T00:38:11.055Z,0
2022-11-13T00:39:08.158Z,0
2022-11-13T00:40:08.235Z,0
2022-11-13T00:41:08.157Z,0
2022-11-13T00:42:08.214Z,0
2022-11-13T00:43:08.182Z,0
2022-11-13T00:44:11.002Z,0
2022-11-13T00:45:08.243Z,0
2022-11-13T00:46:08.179Z,0
2022-11-13T00:47:08.422Z,0
2022-11-13T00:48:08.076Z,0
2022-11-13T00:49:11.193Z,0
2022-11-13T00:50:08.298Z,0
2022-11-13T00:51:08.169Z,0
2022-11-13T00:52:08.305Z,0
2022-11-13T00:53:08.206Z,0
2022-11-13T00:54:08.331Z,0
2022-11-13T00:55:08.185Z,0
2022-11-13T00:56:08.174Z,0
2022-11-13T00:57:08.176Z,0
2022-11-13T00:58:08.344Z,0
2022-11-13T00:59:08.193Z,0
2022-11-13T01:00:11.299Z,0
2022-11-13T01:01:08.188Z,0
2022-11-13T01:02:08.372Z,0
2022-11-13T01:03:08.346Z,0
2022-11-13T01:04:08.205Z,0
2022-11-13T01:05:08.210Z,0
2022-11-13T01:06:08.319Z,0
2022-11-13T01:07:08.366Z,0
2022-11-13T01:08:08.374Z,0
2022-11-13T01:09:08.204Z,0
2022-11-13T01:10:08.327Z,0
2022-11-13T01:11:11.273Z,0
2022-11-13T01:12:08.235Z,0
2022-11-13T01:13:08.256Z,0
2022-11-13T01:14:08.233Z,0
2022-11-13T01:15:08.215Z,0
2022-11-13T01:16:08.237Z,0
2022-11-13T01:17:08.246Z,0
2022-11-13T01:18:08.272Z,0
2022-11-13T01:19:08.326Z,0
2022-11-13T01:20:08.225Z,0
2022-11-13T01:21:08.223Z,0
2022-11-13T01:22:08.432Z,0
2022-11-13T01:23:08.278Z,0
2022-11-13T01:24:08.377Z,0
2022-11-13T01:25:08.231Z,0
2022-11-13T01:26:08.507Z,0
2022-11-13T01:27:11.021Z,0
2022-11-13T01:28:08.271Z,0
2022-11-13T01:29:08.241Z,0
2022-11-13T01:30:08.270Z,0
2022-11-13T01:31:08.252Z,0
2022-11-13T01:32:08.241Z,0
2022-11-13T01:33:08.267Z,0
2022-11-13T01:34:08.258Z,0
2022-11-13T01:35:08.356Z,0
2022-11-13T01:36:08.247Z,0
2022-11-13T01:37:08.284Z,0
2022-11-13T01:38:08.403Z,0
2022-11-13T01:39:08.248Z,0
2022-11-13T01:40:08.528Z,0
2022-11-13T01:41:08.267Z,0
2022-11-13T01:42:08.375Z,0
2022-11-13T01:43:08.285Z,0
2022-11-13T01:44:08.323Z,0
2022-11-13T01:45:08.257Z,0
2022-11-13T01:46:08.316Z,0
2022-11-13T01:47:08.284Z,0
2022-11-13T01:48:08.313Z,0
2022-11-13T01:49:08.273Z,0
2022-11-13T01:50:08.282Z,0
2022-11-13T01:51:08.389Z,0
2022-11-13T01:52:08.303Z,0
2022-11-13T01:53:08.317Z,0
2022-11-13T01:54:11.158Z,0
2022-11-13T01:55:08.298Z,0
2022-11-13T01:56:08.409Z,0
2022-11-13T01:57:08.323Z,0
2022-11-13T01:58:08.463Z,0
2022-11-13T01:59:11.081Z,0
2022-11-13T02:00:08.289Z,0
2022-11-13T02:01:08.292Z,0
2022-11-13T02:02:08.589Z,0
2022-11-13T02:03:08.324Z,0
2022-11-13T02:04:11.029Z,0
2022-11-13T02:05:11.094Z,0
2022-11-13T02:06:08.297Z,0
2022-11-13T02:07:08.765Z,0
2022-11-13T02:08:08.354Z,0
2022-11-13T02:09:08.303Z,0
2022-11-13T02:10:09.497Z,0
2022-11-13T02:11:08.326Z,0
2022-11-13T02:12:08.425Z,0
2022-11-13T02:13:08.343Z,0
2022-11-13T02:14:08.432Z,0
2022-11-13T02:15:08.313Z,0
2022-11-13T02:16:11.414Z,0
2022-11-13T02:17:08.301Z,0
2022-11-13T02:18:08.403Z,0
2022-11-13T02:19:08.316Z,0
2022-11-13T02:20:08.313Z,0
2022-11-13T02:21:11.195Z,0
2022-11-13T02:22:08.356Z,0
2022-11-13T02:23:08.480Z,0
2022-11-13T02:24:08.477Z,0
2022-11-13T02:25:08.326Z,0
2022-11-13T02:26:08.498Z,0
2022-11-13T02:27:11.236Z,0
2022-11-13T02:28:08.456Z,0
2022-11-13T02:29:08.358Z,0
2022-11-13T02:30:12.812Z,0
2022-11-13T02:31:08.360Z,0
2022-11-13T02:32:11.282Z,0
2022-11-13T02:33:08.351Z,0
2022-11-13T02:34:08.348Z,0
2022-11-13T02:35:08.401Z,0
2022-11-13T02:36:08.368Z,0
2022-11-13T02:37:08.355Z,0
2022-11-13T02:38:09.546Z,0
2022-11-13T02:39:08.463Z,0
2022-11-13T02:40:08.377Z,0
2022-11-13T02:41:08.348Z,0
2022-11-13T02:42:08.474Z,0
2022-11-13T02:43:11.508Z,0
2022-11-13T02:44:08.358Z,0
2022-11-13T02:45:08.444Z,0
2022-11-13T02:46:08.493Z,0
2022-11-13T02:47:08.371Z,0
2022-11-13T02:48:08.398Z,0
2022-11-13T02:49:11.251Z,0
2022-11-13T02:50:08.391Z,0
2022-11-13T02:51:08.395Z,0
2022-11-13T02:52:08.460Z,0
2022-11-13T02:53:08.435Z,0
2022-11-13T02:54:17.842Z,0
2022-11-13T02:55:08.484Z,0
2022-11-13T02:56:08.383Z,0
2022-11-13T02:57:08.394Z,0
2022-11-13T02:58:08.660Z,0
2022-11-13T02:59:08.502Z,0
2022-11-13T03:00:16.401Z,0
2022-11-13T03:01:08.370Z,0
2022-11-13T03:02:08.706Z,0
2022-11-13T03:03:08.409Z,0
2022-11-13T03:04:09.427Z,0
2022-11-13T03:05:23.912Z,0
2022-11-13T03:06:08.400Z,0
2022-11-13T03:07:08.730Z,0
2022-11-13T03:08:08.408Z,0
2022-11-13T03:09:08.460Z,0
2022-11-13T03:10:08.412Z,0
2022-11-13T03:11:08.513Z,0
2022-11-13T03:12:08.395Z,0
2022-11-13T03:13:08.499Z,0
2022-11-13T03:14:08.608Z,0
2022-11-13T03:15:08.559Z,0
2022-11-13T03:16:11.547Z,0
2022-11-13T03:17:08.423Z,0
2022-11-13T03:18:08.550Z,0
2022-11-13T03:19:08.427Z,0
2022-11-13T03:20:08.522Z,0
2022-11-13T03:21:08.425Z,0
2022-11-13T03:22:08.426Z,0
2022-11-13T03:23:08.438Z,0
2022-11-13T03:24:08.407Z,0
2022-11-13T03:25:15.483Z,0
2022-11-13T03:26:08.422Z,0
2022-11-13T03:27:11.393Z,0
2022-11-13T03:28:08.455Z,0
2022-11-13T03:29:08.430Z,0
2022-11-13T03:30:08.592Z,0
2022-11-13T03:31:08.542Z,0
2022-11-13T03:32:08.432Z,0
2022-11-13T03:33:08.447Z,0
2022-11-13T03:34:08.564Z,0
2022-11-13T03:35:08.458Z,0
2022-11-13T03:36:08.438Z,0
2022-11-13T03:37:08.468Z,0
2022-11-13T03:38:11.472Z,0
2022-11-13T03:39:08.442Z,0
2022-11-13T03:40:08.445Z,0
2022-11-13T03:41:08.448Z,0
2022-11-13T03:42:08.578Z,0
2022-11-13T03:43:08.594Z,0
2022-11-13T03:44:08.459Z,0
2022-11-13T03:45:08.453Z,0
2022-11-13T03:46:08.569Z,0
2022-11-13T03:47:08.573Z,0
2022-11-13T03:48:08.478Z,0
2022-11-13T03:49:08.453Z,0
2022-11-13T03:50:08.579Z,0
2022-11-13T03:51:08.472Z,0
2022-11-13T03:52:08.489Z,0
2022-11-13T03:53:08.482Z,0
2022-11-13T03:54:11.312Z,0
2022-11-13T03:55:08.475Z,0
2022-11-13T03:56:08.472Z,0
2022-11-13T03:57:08.456Z,0
2022-11-13T03:58:08.506Z,0
2022-11-13T03:59:08.599Z,0
2022-11-13T04:00:08.462Z,0
2022-11-13T04:01:08.478Z,0
2022-11-13T04:02:08.795Z,0
2022-11-13T04:03:08.645Z,0
2022-11-13T04:04:08.482Z,0
2022-11-13T04:05:08.481Z,0
2022-11-13T04:06:08.667Z,0
2022-11-13T04:07:08.710Z,0
2022-11-13T04:08:08.525Z,0
2022-11-13T04:09:08.490Z,0
2022-11-13T04:10:08.495Z,0
2022-11-13T04:11:08.494Z,0
2022-11-13T04:12:08.494Z,0
2022-11-13T04:13:08.519Z,0
2022-11-13T04:14:08.499Z,0
2022-11-13T04:15:08.614Z,0
2022-11-13T04:16:08.542Z,0
2022-11-13T04:17:08.502Z,0
2022-11-13T04:18:08.663Z,0
2022-11-13T04:19:08.619Z,0
2022-11-13T04:20:08.506Z,0
2022-11-13T04:21:09.736Z,0
2022-11-13T04:22:08.626Z,0
2022-11-13T04:23:08.539Z,0
2022-11-13T04:24:08.524Z,0
2022-11-13T04:25:08.525Z,0
2022-11-13T04:26:11.373Z,0
2022-11-13T04:27:08.521Z,0
2022-11-13T04:28:08.539Z,0
2022-11-13T04:29:08.516Z,0
2022-11-13T04:30:08.519Z,0
2022-11-13T04:31:08.646Z,0
2022-11-13T04:32:11.581Z,0
2022-11-13T04:33:08.551Z,0
2022-11-13T04:34:08.645Z,0
2022-11-13T04:35:08.612Z,0
2022-11-13T04:36:08.529Z,0
2022-11-13T04:37:11.909Z,0
2022-11-13T04:38:08.550Z,0
2022-11-13T04:39:08.540Z,0
2022-11-13T04:40:08.539Z,0
2022-11-13T04:41:08.547Z,0
2022-11-13T04:42:08.539Z,0
2022-11-13T04:43:11.401Z,0
2022-11-13T04:44:08.537Z,0
2022-11-13T04:45:08.566Z,0
2022-11-13T04:46:08.573Z,0
2022-11-13T04:47:08.666Z,0
2022-11-13T04:48:10.212Z,0
2022-11-13T04:49:08.578Z,0
2022-11-13T04:50:08.667Z,0
2022-11-13T04:51:08.692Z,0
2022-11-13T04:52:08.567Z,0
2022-11-13T04:53:08.716Z,0
2022-11-13T04:54:11.402Z,0
2022-11-13T04:55:08.570Z,0
2022-11-13T04:56:08.565Z,0
2022-11-13T04:57:08.568Z,0
2022-11-13T04:58:08.588Z,0
2022-11-13T04:59:11.576Z,0
2022-11-13T05:00:08.856Z,0
2022-11-13T05:01:08.576Z,0
2022-11-13T05:02:08.934Z,0
2022-11-13T05:03:08.728Z,0
2022-11-13T05:04:08.666Z,0
2022-11-13T05:05:15.040Z,0
2022-11-13T05:06:08.580Z,0
2022-11-13T05:07:08.963Z,0
2022-11-13T05:08:08.619Z,0
2022-11-13T05:09:08.716Z,0
2022-11-13T05:10:08.846Z,0
2022-11-13T05:11:08.581Z,0
2022-11-13T05:12:08.595Z,0
2022-11-13T05:13:08.620Z,0
2022-11-13T05:14:10.573Z,0
2022-11-13T05:15:08.598Z,0
2022-11-13T05:16:11.666Z,0
2022-11-13T05:17:08.621Z,0
2022-11-13T05:18:08.628Z,0
2022-11-13T05:19:08.768Z,0
2022-11-13T05:20:08.612Z,0
2022-11-13T05:21:11.890Z,0
2022-11-13T05:22:08.610Z,0
2022-11-13T05:23:08.747Z,0
2022-11-13T05:24:08.609Z,0
2022-11-13T05:25:08.803Z,0
2022-11-13T05:26:08.609Z,0
2022-11-13T05:27:15.956Z,0
2022-11-13T05:28:08.639Z,0
2022-11-13T05:29:08.608Z,0
2022-11-13T05:30:08.667Z,0
2022-11-13T05:31:08.614Z,0
2022-11-13T05:32:11.643Z,0
2022-11-13T05:33:08.633Z,0
2022-11-13T05:34:12.735Z,0
2022-11-13T05:35:08.757Z,0
2022-11-13T05:36:08.666Z,0
2022-11-13T05:37:08.753Z,0
2022-11-13T05:38:08.681Z,0
2022-11-13T05:39:08.755Z,0
2022-11-13T05:40:08.676Z,0
2022-11-13T05:41:08.750Z,0
2022-11-13T05:42:08.637Z,0
2022-11-13T05:43:11.922Z,0
2022-11-13T05:44:08.637Z,0
2022-11-13T05:45:08.644Z,0
2022-11-13T05:46:08.641Z,0
2022-11-13T05:47:08.701Z,0
2022-11-13T05:48:08.669Z,0
2022-11-13T05:49:08.643Z,0
2022-11-13T05:50:08.657Z,0
2022-11-13T05:51:08.786Z,0
2022-11-13T05:52:08.675Z,0
2022-11-13T05:53:08.831Z,0
2022-11-13T05:54:11.714Z,0
2022-11-13T05:55:08.660Z,0
2022-11-13T05:56:08.665Z,0
2022-11-13T05:57:08.789Z,0
2022-11-13T05:58:08.695Z,0
2022-11-13T05:59:08.672Z,0
2022-11-13T06:00:08.661Z,0
2022-11-13T06:01:08.665Z,0
2022-11-13T06:02:09.025Z,4
2022-11-13T06:03:08.711Z,0
2022-11-13T06:04:08.663Z,0
2022-11-13T06:05:11.521Z,0
2022-11-13T06:06:08.674Z,0
2022-11-13T06:07:09.196Z,4
2022-11-13T06:08:08.686Z,0
2022-11-13T06:09:08.814Z,4
2022-11-13T06:10:08.794Z,0
2022-11-13T06:11:08.677Z,4
2022-11-13T06:12:08.722Z,4
2022-11-13T06:13:08.830Z,0
2022-11-13T06:14:08.683Z,4
2022-11-13T06:15:08.716Z,4
2022-11-13T06:16:08.672Z,4
2022-11-13T06:17:08.678Z,4
2022-11-13T06:18:09.024Z,4
2022-11-13T06:19:08.761Z,4
2022-11-13T06:20:08.766Z,4
2022-11-13T06:21:11.469Z,8
2022-11-13T06:22:08.703Z,8
2022-11-13T06:23:08.821Z,8
2022-11-13T06:24:08.692Z,8
2022-11-13T06:25:08.820Z,8
2022-11-13T06:26:08.812Z,12
2022-11-13T06:27:08.703Z,12
2022-11-13T06:28:08.720Z,12
2022-11-13T06:29:08.877Z,16
2022-11-13T06:30:08.827Z,16
2022-11-13T06:31:08.794Z,16
2022-11-13T06:32:08.725Z,16
2022-11-13T06:33:08.735Z,20
2022-11-13T06:34:08.703Z,20
2022-11-13T06:35:08.746Z,20
2022-11-13T06:36:08.865Z,24
2022-11-13T06:37:08.903Z,24
2022-11-13T06:38:08.732Z,24
2022-11-13T06:39:09.233Z,24
2022-11-13T06:40:08.734Z,28
2022-11-13T06:41:08.837Z,24
2022-11-13T06:42:08.888Z,28
2022-11-13T06:43:08.739Z,28
2022-11-13T06:44:10.271Z,28
2022-11-13T06:45:08.861Z,28
2022-11-13T06:46:08.781Z,32
2022-11-13T06:47:08.737Z,32
2022-11-13T06:48:11.522Z,36
2022-11-13T06:49:08.747Z,32
2022-11-13T06:50:08.740Z,32
2022-11-13T06:51:08.751Z,36
2022-11-13T06:52:08.736Z,36
2022-11-13T06:53:11.841Z,40
2022-11-13T06:54:08.746Z,44
2022-11-13T06:55:08.868Z,48
2022-11-13T06:56:08.745Z,48
2022-11-13T06:57:08.864Z,52
2022-11-13T06:58:08.866Z,52
2022-11-13T06:59:14.690Z,52
2022-11-13T07:00:08.751Z,52
2022-11-13T07:01:09.139Z,56
2022-11-13T07:02:08.769Z,56
2022-11-13T07:03:08.755Z,60
2022-11-13T07:04:10.260Z,64
2022-11-13T07:05:08.768Z,56
2022-11-13T07:06:08.766Z,64
2022-11-13T07:07:08.988Z,68
2022-11-13T07:08:08.762Z,72
2022-11-13T07:09:08.786Z,72
2022-11-13T07:10:11.837Z,80
2022-11-13T07:11:08.895Z,80
2022-11-13T07:12:11.181Z,80
2022-11-13T07:13:08.899Z,76
2022-11-13T07:14:08.910Z,72
2022-11-13T07:15:11.716Z,80
2022-11-13T07:16:22.882Z,84
2022-11-13T07:17:16.621Z,84
2022-11-13T07:18:08.782Z,88
2022-11-13T07:19:09.109Z,100
2022-11-13T07:20:08.829Z,116
2022-11-13T07:21:11.850Z,140
2022-11-13T07:22:08.783Z,172
2022-11-13T07:23:08.790Z,204
2022-11-13T07:24:12.752Z,268
2022-11-13T07:25:08.796Z,532
2022-11-13T07:26:11.986Z,604
2022-11-13T07:27:08.801Z,388
2022-11-13T07:28:08.819Z,404
2022-11-13T07:29:08.953Z,1060
2022-11-13T07:30:10.971Z,712
2022-11-13T07:31:08.798Z,916
2022-11-13T07:32:11.938Z,680
2022-11-13T07:33:08.822Z,568
2022-11-13T07:34:08.820Z,452
2022-11-13T07:35:08.795Z,744
2022-11-13T07:36:08.812Z,1100
2022-11-13T07:37:11.831Z,1748
2022-11-13T07:38:08.813Z,2212
2022-11-13T07:39:08.824Z,2276
2022-11-13T07:40:08.821Z,4052
2022-11-13T07:41:08.900Z,4100
2022-11-13T07:42:08.933Z,3872
2022-11-13T07:43:11.954Z,4104
2022-11-13T07:44:48.311Z,4060
2022-11-13T07:45:08.879Z,4204
2022-11-13T07:46:08.952Z,4292
2022-11-13T07:47:08.905Z,3308
2022-11-13T07:48:11.736Z,3248
2022-11-13T07:49:08.837Z,3364
2022-11-13T07:50:15.710Z,3368
2022-11-13T07:51:08.838Z,3284
2022-11-13T07:52:08.930Z,2996
2022-11-13T07:53:08.838Z,2384
2022-11-13T07:54:12.491Z,1832
2022-11-13T07:55:08.844Z,1212
2022-11-13T07:56:08.895Z,948
2022-11-13T07:57:12.039Z,808
2022-11-13T07:58:08.850Z,684
2022-11-13T07:59:09.920Z,484
2022-11-13T08:00:09.007Z,516
2022-11-13T08:01:09.154Z,540
2022-11-13T08:02:08.980Z,560
2022-11-13T08:03:09.043Z,488
2022-11-13T08:04:08.997Z,520
2022-11-13T08:05:11.917Z,520
2022-11-13T08:06:08.881Z,532
2022-11-13T08:07:09.208Z,528
2022-11-13T08:08:08.951Z,480
2022-11-13T08:09:08.859Z,408
2022-11-13T08:10:11.777Z,456
2022-11-13T08:11:08.867Z,460
2022-11-13T08:12:08.863Z,480
2022-11-13T08:13:09.023Z,460
2022-11-13T08:14:09.959Z,428
2022-11-13T08:15:15.843Z,472
2022-11-13T08:16:11.895Z,476
2022-11-13T08:17:08.887Z,468
2022-11-13T08:18:09.006Z,456
2022-11-13T08:19:08.891Z,408
2022-11-13T08:20:09.049Z,384
2022-11-13T08:21:18.032Z,404
2022-11-13T08:22:08.879Z,420
2022-11-13T08:23:08.874Z,496
2022-11-13T08:24:08.900Z,440
2022-11-13T08:25:08.917Z,436
2022-11-13T08:26:08.898Z,388
2022-11-13T08:27:08.902Z,464
2022-11-13T08:28:15.823Z,484
2022-11-13T08:29:09.016Z,460
2022-11-13T08:30:08.905Z,536
2022-11-13T08:31:09.007Z,516
2022-11-13T08:32:11.762Z,528
2022-11-13T08:33:08.893Z,464
2022-11-13T08:34:09.019Z,436
2022-11-13T08:35:08.915Z,424
2022-11-13T08:36:09.048Z,384
2022-11-13T08:37:08.898Z,400
2022-11-13T08:38:08.903Z,416
2022-11-13T08:39:08.906Z,404
2022-11-13T08:40:08.917Z,376
2022-11-13T08:41:15.622Z,392
2022-11-13T08:42:08.906Z,428
2022-11-13T08:43:08.898Z,392
2022-11-13T08:44:08.905Z,368
2022-11-13T08:45:09.060Z,396
2022-11-13T08:46:08.936Z,532
2022-11-13T08:47:09.239Z,576
2022-11-13T08:48:08.933Z,472
2022-11-13T08:49:08.931Z,440
2022-11-13T08:50:09.079Z,512
2022-11-13T08:51:08.926Z,504
2022-11-13T08:52:09.077Z,472
2022-11-13T08:53:08.922Z,440
2022-11-13T08:54:08.932Z,408
2022-11-13T08:55:08.973Z,380
2022-11-13T08:56:08.960Z,312
2022-11-13T08:57:12.897Z,300
2022-11-13T08:58:08.939Z,300
2022-11-13T08:59:08.943Z,292
2022-11-13T09:00:08.966Z,292
2022-11-13T09:01:09.124Z,280
2022-11-13T09:02:08.954Z,276
2022-11-13T09:03:09.128Z,280
2022-11-13T09:04:09.301Z,276
2022-11-13T09:05:08.992Z,284
2022-11-13T09:06:09.062Z,288
2022-11-13T09:07:09.237Z,280
2022-11-13T09:08:09.080Z,284
2022-11-13T09:09:08.949Z,276
2022-11-13T09:10:09.001Z,280
2022-11-13T09:11:09.030Z,276
2022-11-13T09:12:08.966Z,280
2022-11-13T09:13:08.965Z,276
2022-11-13T09:14:09.117Z,272
2022-11-13T09:15:11.843Z,276
2022-11-13T09:16:08.963Z,276
2022-11-13T09:17:09.086Z,268
2022-11-13T09:18:08.963Z,268
2022-11-13T09:19:09.093Z,268
2022-11-13T09:20:22.884Z,268
2022-11-13T09:21:08.970Z,264
2022-11-13T09:22:09.242Z,264
2022-11-13T09:23:08.986Z,264
2022-11-13T09:24:09.145Z,264
2022-11-13T09:25:08.998Z,268
2022-11-13T09:26:12.081Z,268
2022-11-13T09:27:09.251Z,264
2022-11-13T09:28:09.062Z,268
2022-11-13T09:29:08.970Z,272
2022-11-13T09:30:09.047Z,268
2022-11-13T09:31:12.092Z,272
2022-11-13T09:32:08.984Z,272
2022-11-13T09:33:09.136Z,272
2022-11-13T09:34:09.005Z,276
2022-11-13T09:35:09.147Z,272
2022-11-13T09:36:09.001Z,272
2022-11-13T09:37:11.815Z,272
2022-11-13T09:38:21.312Z,276
2022-11-13T09:39:09.008Z,276
2022-11-13T09:40:09.153Z,276
2022-11-13T09:41:09.019Z,276
2022-11-13T09:42:10.227Z,272
2022-11-13T09:43:08.988Z,272
2022-11-13T09:44:09.024Z,272
2022-11-13T09:45:09.077Z,272
2022-11-13T09:46:09.009Z,272
2022-11-13T09:47:09.016Z,272
2022-11-13T09:48:11.910Z,268
2022-11-13T09:49:09.133Z,272
2022-11-13T09:50:09.038Z,272
2022-11-13T09:51:09.136Z,272
2022-11-13T09:52:13.380Z,272
2022-11-13T09:53:12.142Z,272
2022-11-13T09:54:09.183Z,272
2022-11-13T09:55:09.057Z,276
2022-11-13T09:56:09.195Z,276
2022-11-13T09:57:09.015Z,276
2022-11-13T09:58:09.028Z,272
2022-11-13T09:59:11.867Z,272
2022-11-13T10:00:09.066Z,272
2022-11-13T10:01:09.414Z,272
2022-11-13T10:02:09.089Z,276
2022-11-13T10:03:09.038Z,276
2022-11-13T10:04:17.781Z,276
2022-11-13T10:05:08.887Z,276
2022-11-13T10:06:09.118Z,272
2022-11-13T10:07:09.583Z,272
2022-11-13T10:08:12.005Z,276
2022-11-13T10:09:09.043Z,276
2022-11-13T10:10:10.338Z,276
2022-11-13T10:11:09.026Z,276
2022-11-13T10:12:09.180Z,276
2022-11-13T10:13:09.073Z,276
2022-11-13T10:14:09.049Z,276
2022-11-13T10:15:12.358Z,276
2022-11-13T10:16:09.059Z,276
2022-11-13T10:17:09.150Z,276
2022-11-13T10:18:09.050Z,276
2022-11-13T10:19:09.061Z,276
2022-11-13T10:20:09.237Z,276
2022-11-13T10:21:18.169Z,272
2022-11-13T10:22:39.424Z,272
2022-11-13T10:23:09.073Z,276
2022-11-13T10:24:15.476Z,276
2022-11-13T10:25:09.080Z,276
2022-11-13T10:26:11.963Z,276
2022-11-13T10:27:09.120Z,276
2022-11-13T10:28:54.109Z,276
2022-11-13T10:29:09.420Z,276
2022-11-13T10:30:09.161Z,276
2022-11-13T10:31:09.066Z,280
2022-11-13T10:32:11.848Z,276
2022-11-13T10:33:09.057Z,276
2022-11-13T10:34:09.073Z,276
2022-11-13T10:35:09.102Z,276
2022-11-13T10:36:09.173Z,276
2022-11-13T10:37:11.907Z,276
2022-11-13T10:38:18.030Z,276
2022-11-13T10:39:09.077Z,272
2022-11-13T10:40:09.135Z,276
2022-11-13T10:41:09.089Z,276
2022-11-13T10:42:09.369Z,276
2022-11-13T10:43:12.155Z,272
2022-11-13T10:44:09.264Z,276
2022-11-13T10:45:15.571Z,272
2022-11-13T10:46:09.289Z,276
2022-11-13T10:47:09.127Z,272
2022-11-13T10:48:12.140Z,272
2022-11-13T10:49:09.095Z,272
2022-11-13T10:50:09.155Z,272
2022-11-13T10:51:09.150Z,272
2022-11-13T10:52:15.524Z,272
2022-11-13T10:53:09.116Z,272
2022-11-13T10:54:09.223Z,268
2022-11-13T10:55:09.125Z,272
2022-11-13T10:56:10.090Z,268
2022-11-13T10:57:09.098Z,268
2022-11-13T10:58:09.280Z,264
2022-11-13T10:59:12.817Z,264
2022-11-13T11:00:09.362Z,264
2022-11-13T11:01:09.465Z,264
2022-11-13T11:02:09.245Z,264
2022-11-13T11:03:09.159Z,264
2022-11-13T11:04:09.141Z,260
2022-11-13T11:05:09.214Z,264
2022-11-13T11:06:09.115Z,260
2022-11-13T11:07:27.521Z,260
2022-11-13T11:08:09.587Z,260
2022-11-13T11:09:09.162Z,256
2022-11-13T11:10:09.180Z,252
2022-11-13T11:11:09.119Z,256
2022-11-13T11:12:09.133Z,256
2022-11-13T11:13:09.109Z,256
2022-11-13T11:14:09.255Z,252
2022-11-13T11:15:09.140Z,256
2022-11-13T11:16:09.231Z,256
2022-11-13T11:17:09.155Z,252
2022-11-13T11:18:09.247Z,256
2022-11-13T11:19:09.607Z,252
2022-11-13T11:20:09.183Z,252
2022-11-13T11:21:09.149Z,252
2022-11-13T11:22:09.165Z,252
2022-11-13T11:23:09.186Z,248
2022-11-13T11:24:09.310Z,248
2022-11-13T11:25:09.198Z,248
2022-11-13T11:26:09.268Z,252
2022-11-13T11:27:09.228Z,248
2022-11-13T11:28:09.175Z,248
2022-11-13T11:29:09.164Z,248
2022-11-13T11:30:09.388Z,248
2022-11-13T11:31:09.209Z,248
2022-11-13T11:32:09.326Z,248
2022-11-13T11:33:09.164Z,248
2022-11-13T11:34:09.164Z,248
2022-11-13T11:35:09.185Z,244
2022-11-13T11:36:09.202Z,248
2022-11-13T11:37:09.168Z,248
2022-11-13T11:38:09.185Z,244
2022-11-13T11:39:09.165Z,244
2022-11-13T11:40:09.320Z,244
2022-11-13T11:41:16.166Z,244
2022-11-13T11:42:13.321Z,244
2022-11-13T11:43:09.162Z,240
2022-11-13T11:44:09.164Z,240
2022-11-13T11:45:09.188Z,240
2022-11-13T11:46:09.349Z,236
2022-11-13T11:47:09.238Z,240
2022-11-13T11:48:09.290Z,236
2022-11-13T11:49:09.197Z,236
2022-11-13T11:50:09.211Z,236
2022-11-13T11:51:09.206Z,236
2022-11-13T11:52:09.299Z,232
2022-11-13T11:53:11.967Z,236
2022-11-13T11:54:11.947Z,232
2022-11-13T11:55:09.229Z,232
2022-11-13T11:56:09.299Z,232
2022-11-13T11:57:09.207Z,232
2022-11-13T11:58:12.069Z,232
2022-11-13T11:59:09.215Z,232
2022-11-13T12:00:09.218Z,232
2022-11-13T12:01:09.226Z,232
2022-11-13T12:02:09.310Z,228
2022-11-13T12:03:09.210Z,232
2022-11-13T12:04:12.110Z,232
2022-11-13T12:05:09.606Z,228
2022-11-13T12:06:09.223Z,232
2022-11-13T12:07:09.516Z,228
2022-11-13T12:08:09.201Z,232
2022-11-13T12:09:10.295Z,224
2022-11-13T12:10:09.068Z,224
2022-11-13T12:11:09.252Z,228
2022-11-13T12:12:09.354Z,224
2022-11-13T12:13:09.215Z,224
2022-11-13T12:14:09.340Z,224
2022-11-13T12:15:12.849Z,224
2022-11-13T12:16:09.223Z,220
2022-11-13T12:17:20.781Z,224
2022-11-13T12:18:09.215Z,220
2022-11-13T12:19:09.242Z,220
2022-11-13T12:20:12.652Z,224
2022-11-13T12:21:09.239Z,220
2022-11-13T12:22:09.381Z,220
2022-11-13T12:23:09.239Z,224
2022-11-13T12:24:09.247Z,216
2022-11-13T12:25:09.227Z,216
2022-11-13T12:26:18.108Z,220
2022-11-13T12:27:09.239Z,216
2022-11-13T12:28:09.367Z,216
2022-11-13T12:29:09.237Z,216
2022-11-13T12:30:09.365Z,216
2022-11-13T12:31:12.419Z,212
2022-11-13T12:32:09.280Z,212
2022-11-13T12:33:09.363Z,212
2022-11-13T12:34:09.283Z,212
2022-11-13T12:35:09.251Z,212
2022-11-13T12:36:09.409Z,208
2022-11-13T12:37:12.121Z,208
2022-11-13T12:39:09.252Z,208
2022-11-13T12:40:09.253Z,208
2022-11-13T12:41:09.313Z,204
2022-11-13T12:42:12.112Z,208
2022-11-13T12:43:09.254Z,208
2022-11-13T12:44:09.559Z,208
2022-11-13T12:45:09.259Z,208
2022-11-13T12:46:09.418Z,208
2022-11-13T12:47:09.284Z,204
2022-11-13T12:48:12.851Z,204
2022-11-13T12:49:10.152Z,204
2022-11-13T12:50:09.348Z,204
2022-11-13T12:51:09.474Z,204
2022-11-13T12:52:09.392Z,204
2022-11-13T12:53:12.170Z,200
2022-11-13T12:54:09.515Z,200
2022-11-13T12:55:09.553Z,200
2022-11-13T12:56:09.312Z,200
2022-11-13T12:57:09.128Z,200
2022-11-13T12:58:09.279Z,196
2022-11-13T12:59:37.243Z,204
2022-11-13T13:00:09.540Z,196
2022-11-13T13:01:09.601Z,196
2022-11-13T13:02:10.004Z,192
2022-11-13T13:03:09.295Z,192
2022-11-13T13:04:12.569Z,196
2022-11-13T13:05:09.635Z,192
2022-11-13T13:06:09.335Z,192
2022-11-13T13:07:09.776Z,196
2022-11-13T13:08:12.429Z,192
2022-11-13T13:09:09.413Z,192
2022-11-13T13:10:13.287Z,196
2022-11-13T13:11:09.644Z,192
2022-11-13T13:12:09.142Z,184
2022-11-13T13:13:09.501Z,188
2022-11-13T13:14:09.307Z,192
2022-11-13T13:15:12.159Z,188
2022-11-13T13:16:10.767Z,192
2022-11-13T13:17:09.066Z,188
2022-11-13T13:18:09.476Z,188
2022-11-13T13:19:09.329Z,188
2022-11-13T13:20:09.524Z,184
2022-11-13T13:21:09.373Z,184
2022-11-13T13:22:09.340Z,184
2022-11-13T13:23:15.271Z,180
2022-11-13T13:24:09.563Z,180
2022-11-13T13:25:15.641Z,180
2022-11-13T13:26:13.170Z,180
2022-11-13T13:27:09.342Z,180
2022-11-13T13:28:09.363Z,176
2022-11-13T13:29:09.345Z,180
2022-11-13T13:30:09.415Z,176
2022-11-13T13:31:09.386Z,176
2022-11-13T13:32:26.723Z,172
2022-11-13T13:33:13.029Z,172
2022-11-13T13:34:09.363Z,172
2022-11-13T13:35:09.360Z,172
2022-11-13T13:36:09.505Z,176
2022-11-13T13:37:09.435Z,172
2022-11-13T13:38:09.385Z,172
2022-11-13T13:39:09.711Z,172
2022-11-13T13:40:09.365Z,172
2022-11-13T13:41:09.579Z,172
2022-11-13T13:42:09.252Z,168
2022-11-13T13:43:09.840Z,168
2022-11-13T13:44:09.494Z,164
2022-11-13T13:45:09.747Z,168
2022-11-13T13:46:09.420Z,164
2022-11-13T13:47:09.382Z,164
2022-11-13T13:48:09.524Z,164
2022-11-13T13:49:09.500Z,160
2022-11-13T13:50:09.486Z,160
2022-11-13T13:51:09.420Z,156
2022-11-13T13:52:09.506Z,160
2022-11-13T13:53:09.624Z,156
2022-11-13T13:54:09.387Z,156
2022-11-13T13:55:09.477Z,152
2022-11-13T13:56:09.426Z,152
2022-11-13T13:57:09.437Z,152
2022-11-13T13:58:12.565Z,152
2022-11-13T13:59:09.478Z,152
2022-11-13T14:00:09.534Z,148
2022-11-13T14:01:25.987Z,144
2022-11-13T14:02:09.957Z,144
2022-11-13T14:03:09.393Z,144
2022-11-13T14:04:09.898Z,144
2022-11-13T14:05:09.526Z,144
2022-11-13T14:06:10.940Z,144
2022-11-13T14:07:09.712Z,140
2022-11-13T14:08:09.528Z,144
2022-11-13T14:09:12.204Z,140
2022-11-13T14:10:09.458Z,140
2022-11-13T14:11:09.522Z,136
2022-11-13T14:12:16.045Z,136
2022-11-13T14:13:09.408Z,136
2022-11-13T14:14:09.415Z,136